Time;durP1;ratioP1;P1;durP2;ratioP2;P2;SDS_P1;SDS_P2;PMS_P1;PMS_P2;Temp;Humidity;BMP_temperature;BMP_pressure;BME280_temperature;BME280_humidity;BME280_pressure;Samples;Min_cycle;Max_cycle;Signal;HPM_P1;HPM_P2
2021/07/09 00:01:42;;;;;;;;;;;;;;;;;;5053688;28;19958;-61
2021/07/09 00:04:07;;;;;;;;;;;;;;;;;;5050486;28;19919;-63
2021/07/09 00:06:33;;;;;;;;;;;;;;;;;;5053498;28;19916;-61
2021/07/09 00:09:00;;;;;;;;;;;;;;;;;;5053289;28;20297;-61
2021/07/09 00:11:25;;;;;;;;;;;;;;;;;;5053168;28;19917;-62
2021/07/09 00:13:51;;;;;;;;;;;;;;;;;;5053402;28;20341;-61
2021/07/09 00:16:16;;;;;;;;;;;;;;;;;;5053472;28;19935;-63
2021/07/09 00:18:42;;;;;;;;;;;;;;;;;;5053051;28;19955;-60
2021/07/09 00:21:07;;;;;;;;;;;;;;;;;;5053027;28;19912;-63
2021/07/09 00:23:33;;;;;;;;;;;;;;;;;;5053055;28;19917;-63
2021/07/09 00:25:58;;;;;;;;;;;;;;;;;;5053038;28;20062;-62
2021/07/09 00:28:23;;;;;;;;;;;;;;;;;;5052883;28;20074;-63
2021/07/09 00:30:48;;;;;;;;;;;;;;;;;;5052908;28;19913;-62
2021/07/09 00:33:13;;;;;;;;;;;;;;;;;;5052732;28;19935;-62
2021/07/09 00:35:39;;;;;;;;;;;;;;;;;;5052886;28;19913;-64
2021/07/09 00:38:04;;;;;;;;;;;;;;;;;;5052388;28;20008;-62
2021/07/09 00:40:29;;;;;;;;;;;;;;;;;;5050110;28;19995;-63
2021/07/09 00:42:54;;;;;;;;;;;;;;;;;;5052476;28;20287;-63
2021/07/09 00:45:20;;;;;;;;;;;;;;;;;;5052970;28;20192;-62
2021/07/09 00:47:46;;;;;;;;;;;;;;;;;;5052332;28;19944;-63
2021/07/09 00:50:11;;;;;;;;;;;;;;;;;;5052674;28;19971;-61
2021/07/09 00:52:37;;;;;;;;;;;;;;;;;;5052213;28;20371;-62
2021/07/09 00:55:02;;;;;;;;;;;;;;;;;;5052329;28;20008;-60
2021/07/09 00:57:28;;;;;;;;;;;;;;;;;;5052220;28;20279;-61
2021/07/09 00:59:53;;;;;;;;;;;;;;;;;;5052458;28;19917;-62
2021/07/09 01:02:18;;;;;;;;;;;;;;;;;;5052058;28;19913;-59
2021/07/09 01:04:43;;;;;;;;;;;;;;;;;;5051421;28;19993;-60
2021/07/09 01:07:08;;;;;;;;;;;;;;;;;;5052101;28;20466;-61
2021/07/09 01:09:34;;;;;;;;;;;;;;;;;;5051949;28;20108;-61
2021/07/09 01:12:03;;;;;;;;;;;;;;;;;;5052276;28;19912;-62
2021/07/09 01:14:28;;;;;;;;;;;;;;;;;;5051966;28;19983;-62
2021/07/09 01:16:53;;;;;;;;;;;;;;;;;;5052039;28;20442;-62
2021/07/09 01:19:20;;;;;;;;;;;;;;;;;;5051879;28;20051;-61
2021/07/09 01:21:45;;;;;;;;;;;;;;;;;;5052249;28;20283;-62
2021/07/09 01:24:11;;;;;;;;;;;;;;;;;;5051852;28;19913;-62
2021/07/09 01:26:37;;;;;;;;;;;;;;;;;;5051866;28;19924;-58
2021/07/09 01:29:03;;;;;;;;;;;;;;;;;;5051710;28;19917;-62
2021/07/09 01:31:28;;;;;;;;;;;;;;;;;;5051631;28;20084;-61
2021/07/09 01:33:53;;;;;;;;;;;;;;;;;;5051580;28;20043;-64
2021/07/09 01:36:19;;;;;;;;;;;;;;;;;;5051673;28;20015;-61
2021/07/09 01:38:44;;;;;;;;;;;;;;;;;;5051426;28;19919;-63
2021/07/09 01:41:09;;;;;;;;;;;;;;;;;;5052022;28;19921;-61
2021/07/09 01:43:34;;;;;;;;;;;;;;;;;;5051535;28;19913;-58
2021/07/09 01:46:00;;;;;;;;;;;;;;;;;;5051385;28;19924;-63
2021/07/09 01:48:25;;;;;;;;;;;;;;;;;;5051257;28;20359;-61
2021/07/09 01:50:50;;;;;;;;;;;;;;;;;;5051625;28;20391;-63
2021/07/09 01:53:15;;;;;;;;;;;;;;;;;;5051626;28;19958;-61
2021/07/09 01:55:41;;;;;;;;;;;;;;;;;;5048637;28;19920;-61
2021/07/09 01:58:06;;;;;;;;;;;;;;;;;;5051183;28;20098;-64
2021/07/09 02:00:31;;;;;;;;;;;;;;;;;;5051439;28;19912;-62
2021/07/09 02:02:56;;;;;;;;;;;;;;;;;;5051382;28;19920;-61
2021/07/09 02:05:23;;;;;;;;;;;;;;;;;;5033259;28;19991;-63
2021/07/09 02:07:50;;;;;;;;;;;;;;;;;;5051063;28;19912;-63
2021/07/09 02:10:16;;;;;;;;;;;;;;;;;;5051361;28;19921;-63
2021/07/09 02:12:42;;;;;;;;;;;;;;;;;;5051199;28;19995;-61
2021/07/09 02:15:11;;;;;;;;;;;;;;;;;;5051286;28;20449;-61
2021/07/09 02:17:37;;;;;;;;;;;;;;;;;;5050477;28;20015;-59
2021/07/09 02:20:04;;;;;;;;;;;;;;;;;;5051153;28;19913;-64
2021/07/09 02:22:29;;;;;;;;;;;;;;;;;;5050667;28;19956;-62
2021/07/09 02:24:55;;;;;;;;;;;;;;;;;;5051414;28;19948;-61
2021/07/09 02:27:20;;;;;;;;;;;;;;;;;;5051017;28;19912;-62
2021/07/09 02:29:45;;;;;;;;;;;;;;;;;;5050777;28;20401;-61
2021/07/09 02:32:11;;;;;;;;;;;;;;;;;;5050981;28;19913;-61
2021/07/09 02:34:37;;;;;;;;;;;;;;;;;;5050968;28;19959;-61
2021/07/09 02:37:02;;;;;;;;;;;;;;;;;;5049700;28;19917;-64
2021/07/09 02:39:28;;;;;;;;;;;;;;;;;;5048993;28;20011;-63
2021/07/09 02:41:53;;;;;;;;;;;;;;;;;;5063741;22;20012;-70
2021/07/09 02:44:19;;;;;;;;;;;;;;;;;;5030442;28;19917;-69
2021/07/09 02:46:44;;;;;;;;;;;;;;;;;;5028820;28;20015;-70
2021/07/09 02:49:09;;;;;;;;;;;;;;;;;;5029271;28;19971;-69
2021/07/09 02:51:34;;;;;;;;;;;;;;;;;;5041569;28;19963;-69
2021/07/09 02:54:00;;;;;;;;;;;;;;;;;;5010601;28;20038;-69
2021/07/09 02:56:25;;;;;;;;;;;;;;;;;;5010726;28;19920;-69
2021/07/09 02:58:50;;;;;;;;;;;;;;;;;;5009409;28;19917;-69
2021/07/09 03:01:15;;;;;;;;;;;;;;;;;;5009178;28;19913;-69
2021/07/09 03:03:40;;;;;;;;;;;;;;;;;;5015092;28;20019;-69
2021/07/09 03:06:06;;;;;;;;;;;;;;;;;;5030286;28;19913;-69
2021/07/09 03:08:31;;;;;;;;;;;;;;;;;;5028387;28;19963;-69
2021/07/09 03:10:56;;;;;;;;;;;;;;;;;;5030158;28;19913;-69
2021/07/09 03:13:21;;;;;;;;;;;;;;;;;;5029762;28;19917;-69
2021/07/09 03:15:46;;;;;;;;;;;;;;;;;;5030365;28;19914;-69
2021/07/09 03:18:12;;;;;;;;;;;;;;;;;;5029183;28;20016;-69
2021/07/09 03:20:37;;;;;;;;;;;;;;;;;;5030441;28;19967;-69
2021/07/09 03:23:02;;;;;;;;;;;;;;;;;;5029235;28;19913;-70
2021/07/09 03:25:28;;;;;;;;;;;;;;;;;;5030090;28;19917;-68
2021/07/09 03:27:53;;;;;;;;;;;;;;;;;;5029494;28;19967;-69
2021/07/09 03:30:18;;;;;;;;;;;;;;;;;;5032954;28;20298;-68
2021/07/09 03:32:43;;;;;;;;;;;;;;;;;;5033125;28;19913;-68
2021/07/09 03:35:09;;;;;;;;;;;;;;;;;;5033572;28;19913;-69
2021/07/09 03:37:34;;;;;;;;;;;;;;;;;;5032523;28;20390;-68
2021/07/09 03:39:59;;;;;;;;;;;;;;;;;;5032792;28;20070;-68
2021/07/09 03:42:24;;;;;;;;;;;;;;;;;;5032701;28;19917;-68
2021/07/09 03:44:50;;;;;;;;;;;;;;;;;;5033470;28;19960;-69
2021/07/09 03:47:15;;;;;;;;;;;;;;;;;;5048577;28;20533;-68
2021/07/09 03:49:40;;;;;;;;;;;;;;;;;;5032214;28;20438;-69
2021/07/09 03:52:06;;;;;;;;;;;;;;;;;;5032288;28;19913;-69
2021/07/09 03:54:32;;;;;;;;;;;;;;;;;;5030152;28;19928;-68
2021/07/09 03:56:57;;;;;;;;;;;;;;;;;;5033552;28;19989;-69
2021/07/09 03:59:22;;;;;;;;;;;;;;;;;;5032493;28;19917;-69
2021/07/09 04:01:47;;;;;;;;;;;;;;;;;;5032094;28;20007;-69
2021/07/09 04:04:13;;;;;;;;;;;;;;;;;;5033080;28;20375;-69
2021/07/09 04:06:38;;;;;;;;;;;;;;;;;;5032594;28;19920;-69
2021/07/09 04:09:03;;;;;;;;;;;;;;;;;;5047477;28;19952;-69
2021/07/09 04:11:28;;;;;;;;;;;;;;;;;;5031987;28;20385;-69
2021/07/09 04:13:53;;;;;;;;;;;;;;;;;;5033180;28;20334;-69
2021/07/09 04:16:18;;;;;;;;;;;;;;;;;;5032755;28;19913;-68
2021/07/09 04:18:44;;;;;;;;;;;;;;;;;;5032434;28;20355;-69
2021/07/09 04:21:09;;;;;;;;;;;;;;;;;;5031688;28;19925;-69
2021/07/09 04:23:34;;;;;;;;;;;;;;;;;;5031924;28;19916;-68
2021/07/09 04:25:59;;;;;;;;;;;;;;;;;;5032694;28;19913;-69
2021/07/09 04:28:24;;;;;;;;;;;;;;;;;;5031788;28;19967;-69
2021/07/09 04:30:50;;;;;;;;;;;;;;;;;;5031276;28;20486;-68
2021/07/09 04:33:15;;;;;;;;;;;;;;;;;;5018276;28;20292;-68
2021/07/09 04:35:40;;;;;;;;;;;;;;;;;;5047731;28;19975;-68
2021/07/09 04:38:05;;;;;;;;;;;;;;;;;;5031721;28;20004;-68
2021/07/09 04:40:31;;;;;;;;;;;;;;;;;;5032080;28;20394;-68
2021/07/09 04:42:56;;;;;;;;;;;;;;;;;;5031238;28;19956;-68
2021/07/09 04:45:21;;;;;;;;;;;;;;;;;;5032387;28;19917;-68
2021/07/09 04:47:46;;;;;;;;;;;;;;;;;;5031577;28;20333;-68
2021/07/09 04:50:12;;;;;;;;;;;;;;;;;;5031989;28;19917;-69
2021/07/09 04:52:37;;;;;;;;;;;;;;;;;;5030706;28;19933;-68
2021/07/09 04:55:02;;;;;;;;;;;;;;;;;;5047402;28;19936;-69
2021/07/09 04:57:28;;;;;;;;;;;;;;;;;;5031440;28;19913;-68
2021/07/09 04:59:53;;;;;;;;;;;;;;;;;;5032031;28;19913;-68
2021/07/09 05:02:18;;;;;;;;;;;;;;;;;;5031324;28;19913;-69
2021/07/09 05:04:43;;;;;;;;;;;;;;;;;;5031435;28;19913;-69
2021/07/09 05:07:08;;;;;;;;;;;;;;;;;;5031781;28;19968;-69
2021/07/09 05:09:34;;;;;;;;;;;;;;;;;;5031220;28;19921;-69
2021/07/09 05:11:59;;;;;;;;;;;;;;;;;;5031063;28;20012;-69
2021/07/09 05:14:24;;;;;;;;;;;;;;;;;;5031224;28;19913;-69
2021/07/09 05:16:49;;;;;;;;;;;;;;;;;;5031748;28;19913;-68
2021/07/09 05:19:15;;;;;;;;;;;;;;;;;;5030699;28;19913;-68
2021/07/09 05:21:40;;;;;;;;;;;;;;;;;;5030941;28;19983;-69
2021/07/09 05:24:08;;;;;;;;;;;;;;;;;;5031115;28;19921;-68
2021/07/09 05:26:34;;;;;;;;;;;;;;;;;;5031544;28;19952;-69
2021/07/09 05:28:59;;;;;;;;;;;;;;;;;;5030951;28;19960;-68
2021/07/09 05:31:24;;;;;;;;;;;;;;;;;;5030974;28;20450;-68
2021/07/09 05:33:50;;;;;;;;;;;;;;;;;;5031505;28;20430;-69
2021/07/09 05:36:15;;;;;;;;;;;;;;;;;;5030610;28;20267;-69
2021/07/09 05:38:40;;;;;;;;;;;;;;;;;;5030670;28;20016;-68
2021/07/09 05:41:05;;;;;;;;;;;;;;;;;;5031033;28;19917;-68
2021/07/09 05:43:30;;;;;;;;;;;;;;;;;;5046129;28;19921;-69
2021/07/09 05:45:56;;;;;;;;;;;;;;;;;;5030552;28;19913;-67
2021/07/09 05:48:21;;;;;;;;;;;;;;;;;;5030359;28;20363;-69
2021/07/09 05:50:46;;;;;;;;;;;;;;;;;;5030302;28;19917;-69
2021/07/09 05:53:11;;;;;;;;;;;;;;;;;;5030069;28;20011;-68
2021/07/09 05:55:36;;;;;;;;;;;;;;;;;;5045580;28;20346;-69
2021/07/09 05:58:02;;;;;;;;;;;;;;;;;;5030392;28;19916;-68
2021/07/09 06:00:27;;;;;;;;;;;;;;;;;;5030663;28;19917;-68
2021/07/09 06:02:52;;;;;;;;;;;;;;;;;;5027291;28;19967;-69
2021/07/09 06:05:17;;;;;;;;;;;;;;;;;;5030654;28;19913;-69
2021/07/09 06:07:43;;;;;;;;;;;;;;;;;;5029509;28;20022;-69
2021/07/09 06:10:09;;;;;;;;;;;;;;;;;;5030853;28;20012;-68
2021/07/09 06:12:34;;;;;;;;;;;;;;;;;;5030204;28;19917;-69
2021/07/09 06:14:59;;;;;;;;;;;;;;;;;;5030655;28;19920;-68
2021/07/09 06:17:24;;;;;;;;;;;;;;;;;;5029517;28;20354;-68
2021/07/09 06:19:49;;;;;;;;;;;;;;;;;;5045844;28;20287;-69
2021/07/09 06:22:15;;;;;;;;;;;;;;;;;;5029797;28;19956;-68
2021/07/09 06:24:40;;;;;;;;;;;;;;;;;;5029444;28;19936;-68
2021/07/09 06:27:06;;;;;;;;;;;;;;;;;;5030231;28;20000;-69
2021/07/09 06:29:31;;;;;;;;;;;;;;;;;;5015251;28;19921;-69
2021/07/09 06:31:57;;;;;;;;;;;;;;;;;;5010315;28;20324;-69
2021/07/09 06:34:22;;;;;;;;;;;;;;;;;;5022016;28;19959;-68
2021/07/09 06:36:47;;;;;;;;;;;;;;;;;;5029521;28;20164;-68
2021/07/09 06:39:12;;;;;;;;;;;;;;;;;;5028706;28;19923;-68
2021/07/09 06:41:38;;;;;;;;;;;;;;;;;;5028185;28;19917;-69
2021/07/09 06:44:03;;;;;;;;;;;;;;;;;;5029488;28;20159;-68
2021/07/09 06:46:28;;;;;;;;;;;;;;;;;;5019310;28;19921;-68
2021/07/09 06:48:54;;;;;;;;;;;;;;;;;;5028754;28;20375;-69
2021/07/09 06:51:19;;;;;;;;;;;;;;;;;;5030203;28;19913;-68
2021/07/09 06:53:47;;;;;;;;;;;;;;;;;;5029193;28;19917;-69
2021/07/09 06:56:12;;;;;;;;;;;;;;;;;;5030162;28;20000;-68
2021/07/09 06:58:37;;;;;;;;;;;;;;;;;;5029888;28;20016;-69
2021/07/09 07:01:03;;;;;;;;;;;;;;;;;;5029754;28;19921;-68
2021/07/09 07:03:28;;;;;;;;;;;;;;;;;;5034068;28;19925;-68
2021/07/09 07:05:53;;;;;;;;;;;;;;;;;;5033648;28;19917;-68
2021/07/09 07:08:20;;;;;;;;;;;;;;;;;;5032447;28;20023;-68
2021/07/09 07:10:46;;;;;;;;;;;;;;;;;;5033237;28;19921;-68
2021/07/09 07:13:11;;;;;;;;;;;;;;;;;;5032745;28;19921;-67
2021/07/09 07:15:37;;;;;;;;;;;;;;;;;;5033249;28;19925;-69
2021/07/09 07:18:02;;;;;;;;;;;;;;;;;;5031415;28;19937;-68
2021/07/09 07:20:28;;;;;;;;;;;;;;;;;;5033034;28;20000;-67
2021/07/09 07:22:53;;;;;;;;;;;;;;;;;;5036252;28;20300;-67
2021/07/09 07:25:18;;;;;;;;;;;;;;;;;;5033861;28;19963;-67
2021/07/09 07:27:43;;;;;;;;;;;;;;;;;;5032079;28;19924;-67
2021/07/09 07:30:09;;;;;;;;;;;;;;;;;;5032590;28;19967;-68
2021/07/09 07:32:34;;;;;;;;;;;;;;;;;;5037717;28;19917;-67
2021/07/09 07:34:59;;;;;;;;;;;;;;;;;;5034138;28;20306;-67
2021/07/09 07:37:24;;;;;;;;;;;;;;;;;;5034079;28;19920;-67
2021/07/09 07:39:50;;;;;;;;;;;;;;;;;;5032737;28;19917;-66
2021/07/09 07:42:15;;;;;;;;;;;;;;;;;;5033695;28;19917;-67
2021/07/09 07:44:40;;;;;;;;;;;;;;;;;;5033740;28;20689;-67
2021/07/09 07:47:06;;;;;;;;;;;;;;;;;;5036610;28;19917;-67
2021/07/09 07:49:31;;;;;;;;;;;;;;;;;;5034547;28;20399;-66
2021/07/09 07:51:56;;;;;;;;;;;;;;;;;;5033484;28;19913;-66
2021/07/09 07:54:21;;;;;;;;;;;;;;;;;;5033296;28;19917;-67
2021/07/09 07:56:47;;;;;;;;;;;;;;;;;;5033181;28;19924;-67
2021/07/09 07:59:12;;;;;;;;;;;;;;;;;;5033089;28;19917;-66
2021/07/09 08:01:37;;;;;;;;;;;;;;;;;;5031567;28;20295;-67
2021/07/09 08:04:03;;;;;;;;;;;;;;;;;;5032769;28;20239;-67
2021/07/09 08:06:28;;;;;;;;;;;;;;;;;;5032925;28;19925;-69
2021/07/09 08:08:53;;;;;;;;;;;;;;;;;;5033357;28;19964;-68
2021/07/09 08:11:18;;;;;;;;;;;;;;;;;;5030596;28;19913;-68
2021/07/09 08:13:44;;;;;;;;;;;;;;;;;;5032318;28;20343;-69
2021/07/09 08:16:11;;;;;;;;;;;;;;;;;;5033210;28;20399;-69
2021/07/09 08:18:36;;;;;;;;;;;;;;;;;;5031984;28;20260;-69
2021/07/09 08:21:02;;;;;;;;;;;;;;;;;;5032391;28;19947;-69
2021/07/09 08:23:27;;;;;;;;;;;;;;;;;;5029423;28;19913;-68
2021/07/09 08:25:52;;;;;;;;;;;;;;;;;;5032355;28;19928;-66
2021/07/09 08:28:20;;;;;;;;;;;;;;;;;;5032269;28;19917;-69
2021/07/09 08:30:46;;;;;;;;;;;;;;;;;;5049159;28;19974;-69
2021/07/09 08:33:11;;;;;;;;;;;;;;;;;;5049801;28;20286;-69
2021/07/09 08:35:36;;;;;;;;;;;;;;;;;;5031348;28;19913;-69
2021/07/09 08:38:01;;;;;;;;;;;;;;;;;;5031259;28;20072;-69
2021/07/09 08:40:27;;;;;;;;;;;;;;;;;;5031545;28;20441;-69
2021/07/09 08:42:52;;;;;;;;;;;;;;;;;;5030889;28;19996;-69
2021/07/09 08:45:17;;;;;;;;;;;;;;;;;;5031731;28;19985;-69
2021/07/09 08:47:43;;;;;;;;;;;;;;;;;;5032767;28;19920;-69
2021/07/09 08:50:11;;;;;;;;;;;;;;;;;;5032686;28;19917;-69
2021/07/09 08:52:36;;;;;;;;;;;;;;;;;;5032456;28;19913;-69
2021/07/09 08:55:03;;;;;;;;;;;;;;;;;;5031544;28;20378;-69
2021/07/09 08:57:28;;;;;;;;;;;;;;;;;;5032645;28;19936;-69
2021/07/09 08:59:54;;;;;;;;;;;;;;;;;;5032761;28;20413;-69
2021/07/09 09:02:28;;;;;;;;;;;;;;;;;;5032466;28;19947;-69
2021/07/09 09:04:54;;;;;;;;;;;;;;;;;;5032241;28;19924;-69
2021/07/09 09:07:19;;;;;;;;;;;;;;;;;;5032512;28;20402;-69
2021/07/09 09:09:45;;;;;;;;;;;;;;;;;;5032319;28;19917;-69
2021/07/09 09:12:11;;;;;;;;;;;;;;;;;;5032240;28;20019;-69
2021/07/09 09:14:57;;;;;;;;;;;;;;;;;;5032217;28;19948;-69
2021/07/09 09:17:27;;;;;;;;;;;;;;;;;;5032184;28;19917;-69
2021/07/09 09:20:05;;;;;;;;;;;;;;;;;;5032273;28;19944;-69
2021/07/09 09:22:34;;;;;;;;;;;;;;;;;;5031611;28;21355;-70
2021/07/09 09:25:00;;;;;;;;;;;;;;;;;;5030741;28;20280;-69
2021/07/09 09:27:25;;;;;;;;;;;;;;;;;;5031267;28;19920;-68
2021/07/09 09:29:50;;;;;;;;;;;;;;;;;;5031986;28;19925;-69
2021/07/09 09:32:15;;;;;;;;;;;;;;;;;;5032093;28;19975;-69
2021/07/09 09:34:47;;;;;;;;;;;;;;;;;;5032068;28;19960;-69
2021/07/09 09:37:24;;;;;;;;;;;;;;;;;;5034435;28;20283;-71
2021/07/09 09:39:49;;;;;;;;;;;;;;;;;;5034986;28;19913;-69
2021/07/09 09:42:18;;;;;;;;;;;;;;;;;;5031612;28;19947;-70
2021/07/09 09:44:47;;;;;;;;;;;;;;;;;;5031953;28;20004;-69
2021/07/09 09:47:20;;;;;;;;;;;;;;;;;;5031772;28;19967;-69
2021/07/09 09:49:50;;;;;;;;;;;;;;;;;;5031645;28;20359;-69
2021/07/09 09:52:31;;;;;;;;;;;;;;;;;;5031548;28;19913;-69
2021/07/09 09:54:56;;;;;;;;;;;;;;;;;;5031682;28;19919;-69
2021/07/09 09:57:21;;;;;;;;;;;;;;;;;;5031490;28;19917;-69
2021/07/09 09:59:50;;;;;;;;;;;;;;;;;;5031442;28;19920;-69
2021/07/09 10:02:15;;;;;;;;;;;;;;;;;;5031419;28;19913;-69
2021/07/09 10:04:40;;;;;;;;;;;;;;;;;;5031577;28;19921;-69
2021/07/09 10:07:05;;;;;;;;;;;;;;;;;;5031518;28;19913;-69
2021/07/09 10:09:31;;;;;;;;;;;;;;;;;;5031279;28;19948;-70
2021/07/09 10:11:58;;;;;;;;;;;;;;;;;;5031140;28;19948;-69
2021/07/09 10:14:24;;;;;;;;;;;;;;;;;;5028557;28;19940;-69
2021/07/09 10:16:51;;;;;;;;;;;;;;;;;;5031406;28;19913;-70
2021/07/09 10:19:39;;;;;;;;;;;;;;;;;;5031269;28;19913;-70
2021/07/09 10:22:05;;;;;;;;;;;;;;;;;;5013059;28;20295;-70
2021/07/09 10:24:31;;;;;;;;;;;;;;;;;;5031508;28;19913;-70
2021/07/09 10:26:56;;;;;;;;;;;;;;;;;;5031348;28;19913;-70
2021/07/09 10:29:28;;;;;;;;;;;;;;;;;;5031047;28;19925;-70
2021/07/09 10:31:53;;;;;;;;;;;;;;;;;;5031421;28;19913;-70
2021/07/09 10:34:31;;;;;;;;;;;;;;;;;;5031257;28;19920;-70
2021/07/09 10:36:58;;;;;;;;;;;;;;;;;;5031444;28;19920;-70
2021/07/09 10:39:48;;;;;;;;;;;;;;;;;;5035008;28;20287;-70
2021/07/09 10:42:16;;;;;;;;;;;;;;;;;;5035198;28;20433;-67
2021/07/09 10:44:58;;;;;;;;;;;;;;;;;;5050510;28;20270;-67
2021/07/09 10:47:34;;;;;;;;;;;;;;;;;;5035002;28;19956;-66
2021/07/09 10:49:59;;;;;;;;;;;;;;;;;;5035003;28;19971;-67
2021/07/09 10:52:43;;;;;;;;;;;;;;;;;;5034929;28;20355;-67
2021/07/09 10:55:36;;;;;;;;;;;;;;;;;;5035489;28;19917;-68
2021/07/09 10:58:08;;;;;;;;;;;;;;;;;;5035095;28;19939;-67
2021/07/09 11:00:44;;;;;;;;;;;;;;;;;;5050132;28;19913;-67
2021/07/09 11:03:09;;;;;;;;;;;;;;;;;;5034842;28;19917;-67
2021/07/09 11:05:44;;;;;;;;;;;;;;;;;;5034673;28;19995;-68
2021/07/09 11:08:27;;;;;;;;;;;;;;;;;;5034750;28;20203;-68
2021/07/09 11:11:00;;;;;;;;;;;;;;;;;;5034597;28;19917;-68
2021/07/09 11:13:48;;;;;;;;;;;;;;;;;;5033804;28;20111;-67
2021/07/09 11:16:32;;;;;;;;;;;;;;;;;;5035369;28;19919;-67
2021/07/09 11:19:02;;;;;;;;;;;;;;;;;;5034492;28;20504;-67
2021/07/09 11:21:30;;;;;;;;;;;;;;;;;;5034166;28;19920;-67
2021/07/09 11:24:17;;;;;;;;;;;;;;;;;;5034588;28;19974;-67
2021/07/09 11:26:45;;;;;;;;;;;;;;;;;;5034619;28;19940;-68
2021/07/09 11:29:17;;;;;;;;;;;;;;;;;;5034260;28;19917;-67
2021/07/09 11:31:42;;;;;;;;;;;;;;;;;;5033928;28;19920;-68
2021/07/09 11:34:11;;;;;;;;;;;;;;;;;;5034304;28;19913;-67
2021/07/09 11:36:40;;;;;;;;;;;;;;;;;;5034158;28;19959;-67
2021/07/09 11:39:09;;;;;;;;;;;;;;;;;;5033991;28;20007;-67
2021/07/09 11:41:50;;;;;;;;;;;;;;;;;;5033562;28;19991;-68
2021/07/09 11:44:16;;;;;;;;;;;;;;;;;;5033175;28;20276;-67
2021/07/09 11:46:45;;;;;;;;;;;;;;;;;;5034246;28;20007;-67
2021/07/09 11:49:10;;;;;;;;;;;;;;;;;;5032809;28;20390;-66
2021/07/09 11:51:35;;;;;;;;;;;;;;;;;;5033870;28;19913;-67
2021/07/09 11:54:04;;;;;;;;;;;;;;;;;;5034042;28;20010;-68
2021/07/09 11:56:42;;;;;;;;;;;;;;;;;;5049660;28;19913;-67
2021/07/09 11:59:13;;;;;;;;;;;;;;;;;;5033790;28;19963;-67
2021/07/09 12:01:39;;;;;;;;;;;;;;;;;;5033275;28;19913;-66
2021/07/09 12:04:04;;;;;;;;;;;;;;;;;;5034018;28;19991;-67
2021/07/09 12:06:29;;;;;;;;;;;;;;;;;;5033792;28;19913;-67
2021/07/09 12:08:57;;;;;;;;;;;;;;;;;;5048802;28;20278;-67
2021/07/09 12:11:22;;;;;;;;;;;;;;;;;;5033846;28;19914;-67
2021/07/09 12:14:01;;;;;;;;;;;;;;;;;;5033345;28;19967;-66
2021/07/09 12:16:27;;;;;;;;;;;;;;;;;;5033499;28;19914;-67
2021/07/09 12:18:52;;;;;;;;;;;;;;;;;;5033344;28;19917;-67
2021/07/09 12:21:17;;;;;;;;;;;;;;;;;;5026531;28;19920;-67
2021/07/09 12:23:42;;;;;;;;;;;;;;;;;;5012038;28;19920;-66
2021/07/09 12:26:08;;;;;;;;;;;;;;;;;;5013618;28;20303;-66
2021/07/09 12:28:35;;;;;;;;;;;;;;;;;;5013336;28;19921;-67
2021/07/09 12:31:01;;;;;;;;;;;;;;;;;;5011779;28;19917;-67
2021/07/09 12:33:33;;;;;;;;;;;;;;;;;;5018553;28;19959;-67
2021/07/09 12:36:17;;;;;;;;;;;;;;;;;;5033284;28;19924;-67
2021/07/09 12:38:44;;;;;;;;;;;;;;;;;;5033290;28;19917;-67
2021/07/09 12:41:13;;;;;;;;;;;;;;;;;;5032689;28;19924;-67
2021/07/09 12:43:48;;;;;;;;;;;;;;;;;;5032922;28;19916;-67
2021/07/09 12:46:15;;;;;;;;;;;;;;;;;;5033016;28;20000;-68
2021/07/09 12:48:41;;;;;;;;;;;;;;;;;;5032846;28;20288;-67
2021/07/09 12:51:26;;;;;;;;;;;;;;;;;;5032862;28;19917;-67
2021/07/09 12:53:59;;;;;;;;;;;;;;;;;;5032598;28;20450;-67
2021/07/09 12:56:27;;;;;;;;;;;;;;;;;;5048129;28;19913;-67
2021/07/09 12:59:05;;;;;;;;;;;;;;;;;;5032739;28;20023;-67
2021/07/09 13:01:30;;;;;;;;;;;;;;;;;;5032654;28;20402;-67
2021/07/09 13:03:56;;;;;;;;;;;;;;;;;;5032493;28;19960;-68
2021/07/09 13:06:31;;;;;;;;;;;;;;;;;;5032461;28;19917;-67
2021/07/09 13:09:29;;;;;;;;;;;;;;;;;;5032394;28;20059;-67
2021/07/09 13:11:54;;;;;;;;;;;;;;;;;;5030942;28;20008;-67
2021/07/09 13:14:28;;;;;;;;;;;;;;;;;;5032353;28;19970;-67
2021/07/09 13:16:55;;;;;;;;;;;;;;;;;;5032250;28;19963;-67
2021/07/09 13:19:33;;;;;;;;;;;;;;;;;;5032254;28;20003;-64
2021/07/09 13:21:59;;;;;;;;;;;;;;;;;;5012391;28;19914;-67
2021/07/09 13:24:50;;;;;;;;;;;;;;;;;;5027834;28;19913;-67
2021/07/09 13:27:22;;;;;;;;;;;;;;;;;;5012142;28;19968;-67
2021/07/09 13:29:54;;;;;;;;;;;;;;;;;;5012461;28;19918;-67
2021/07/09 13:32:19;;;;;;;;;;;;;;;;;;5012254;28;19914;-67
2021/07/09 13:34:44;;;;;;;;;;;;;;;;;;5025986;28;20398;-67
2021/07/09 13:37:13;;;;;;;;;;;;;;;;;;5031908;28;19920;-67
2021/07/09 13:39:38;;;;;;;;;;;;;;;;;;5031749;28;19966;-68
2021/07/09 13:42:04;;;;;;;;;;;;;;;;;;5031697;28;20005;-67
2021/07/09 13:44:29;;;;;;;;;;;;;;;;;;5031863;28;19913;-67
2021/07/09 13:46:54;;;;;;;;;;;;;;;;;;5031588;28;19924;-65
2021/07/09 13:49:19;;;;;;;;;;;;;;;;;;5031675;28;19964;-67
2021/07/09 13:51:45;;;;;;;;;;;;;;;;;;5031738;28;19920;-67
2021/07/09 13:54:10;;;;;;;;;;;;;;;;;;5031790;28;19916;-67
2021/07/09 13:56:35;;;;;;;;;;;;;;;;;;5031672;28;19924;-67
2021/07/09 13:59:01;;;;;;;;;;;;;;;;;;5031560;28;19913;-67
2021/07/09 14:01:26;;;;;;;;;;;;;;;;;;5031552;28;20194;-67
2021/07/09 14:03:51;;;;;;;;;;;;;;;;;;5031566;28;19917;-67
2021/07/09 14:06:16;;;;;;;;;;;;;;;;;;5030293;28;19959;-67
2021/07/09 14:08:41;;;;;;;;;;;;;;;;;;5032420;28;20379;-67
2021/07/09 14:11:07;;;;;;;;;;;;;;;;;;5033945;28;19921;-67
2021/07/09 14:13:33;;;;;;;;;;;;;;;;;;5028824;28;19972;-67
2021/07/09 14:15:59;;;;;;;;;;;;;;;;;;5031587;28;19913;-67
2021/07/09 14:18:24;;;;;;;;;;;;;;;;;;5031193;28;19935;-67
2021/07/09 14:20:50;;;;;;;;;;;;;;;;;;5031313;28;20035;-67
2021/07/09 14:23:15;;;;;;;;;;;;;;;;;;5031258;28;20008;-67
2021/07/09 14:25:41;;;;;;;;;;;;;;;;;;5031437;28;19924;-67
2021/07/09 14:28:06;;;;;;;;;;;;;;;;;;5031299;28;20375;-67
2021/07/09 14:30:32;;;;;;;;;;;;;;;;;;5029874;28;19928;-67
2021/07/09 14:32:57;;;;;;;;;;;;;;;;;;5031166;28;20364;-66
2021/07/09 14:35:22;;;;;;;;;;;;;;;;;;5031251;28;19953;-67
2021/07/09 14:37:48;;;;;;;;;;;;;;;;;;5031019;28;19939;-68
2021/07/09 14:40:14;;;;;;;;;;;;;;;;;;5031535;28;19917;-66
2021/07/09 14:42:39;;;;;;;;;;;;;;;;;;5027812;28;20306;-67
2021/07/09 14:45:08;;;;;;;;;;;;;;;;;;5031106;28;19988;-67
2021/07/09 14:47:33;;;;;;;;;;;;;;;;;;5031200;28;19925;-67
2021/07/09 14:49:59;;;;;;;;;;;;;;;;;;5030987;28;19918;-66
2021/07/09 14:52:24;;;;;;;;;;;;;;;;;;5030877;28;19913;-68
2021/07/09 14:54:50;;;;;;;;;;;;;;;;;;5031197;28;19917;-66
2021/07/09 14:57:15;;;;;;;;;;;;;;;;;;5031125;28;19913;-67
2021/07/09 14:59:40;;;;;;;;;;;;;;;;;;5030683;28;20022;-67
2021/07/09 15:02:05;;;;;;;;;;;;;;;;;;5030931;28;19994;-67
2021/07/09 15:04:30;;;;;;;;;;;;;;;;;;5031083;28;19921;-67
2021/07/09 15:06:57;;;;;;;;;;;;;;;;;;5031062;28;19913;-67
2021/07/09 15:09:22;;;;;;;;;;;;;;;;;;5030373;28;19921;-67
2021/07/09 15:11:48;;;;;;;;;;;;;;;;;;5031051;28;20364;-67
2021/07/09 15:14:14;;;;;;;;;;;;;;;;;;5030972;28;20004;-66
2021/07/09 15:16:39;;;;;;;;;;;;;;;;;;5030934;28;20011;-67
2021/07/09 15:19:05;;;;;;;;;;;;;;;;;;5030690;28;19917;-67
2021/07/09 15:21:30;;;;;;;;;;;;;;;;;;5030442;28;19960;-67
2021/07/09 15:23:55;;;;;;;;;;;;;;;;;;5030851;28;20427;-67
2021/07/09 15:26:20;;;;;;;;;;;;;;;;;;5034634;28;20382;-67
2021/07/09 15:28:46;;;;;;;;;;;;;;;;;;5034369;28;19913;-67
2021/07/09 15:31:11;;;;;;;;;;;;;;;;;;5034130;28;19917;-67
2021/07/09 15:33:36;;;;;;;;;;;;;;;;;;5034477;28;19913;-67
2021/07/09 15:36:01;;;;;;;;;;;;;;;;;;5034357;28;20406;-66
2021/07/09 15:38:26;;;;;;;;;;;;;;;;;;5034072;28;19913;-67
2021/07/09 15:40:52;;;;;;;;;;;;;;;;;;5033885;28;19921;-67
2021/07/09 15:43:17;;;;;;;;;;;;;;;;;;5033990;28;19919;-67
2021/07/09 15:45:43;;;;;;;;;;;;;;;;;;5034176;28;19976;-67
2021/07/09 15:48:08;;;;;;;;;;;;;;;;;;5034213;28;20000;-68
2021/07/09 15:50:33;;;;;;;;;;;;;;;;;;5034012;28;19920;-68
2021/07/09 15:52:58;;;;;;;;;;;;;;;;;;5034118;28;19913;-66
2021/07/09 15:55:23;;;;;;;;;;;;;;;;;;5034050;28;19920;-67
2021/07/09 15:57:49;;;;;;;;;;;;;;;;;;5033816;28;19920;-67
2021/07/09 16:00:14;;;;;;;;;;;;;;;;;;5034063;28;19924;-66
2021/07/09 16:02:39;;;;;;;;;;;;;;;;;;5033551;28;19920;-66
2021/07/09 16:05:04;;;;;;;;;;;;;;;;;;5033865;28;20136;-66
2021/07/09 16:07:30;;;;;;;;;;;;;;;;;;5033629;28;19913;-67
2021/07/09 16:09:55;;;;;;;;;;;;;;;;;;5033726;28;19924;-67
2021/07/09 16:12:20;;;;;;;;;;;;;;;;;;5030328;28;20295;-67
2021/07/09 16:14:45;;;;;;;;;;;;;;;;;;5033680;28;20003;-66
2021/07/09 16:17:11;;;;;;;;;;;;;;;;;;5033646;28;20016;-67
2021/07/09 16:19:39;;;;;;;;;;;;;;;;;;5033498;28;19917;-67
2021/07/09 16:22:07;;;;;;;;;;;;;;;;;;5033356;28;20011;-66
2021/07/09 16:24:38;;;;;;;;;;;;;;;;;;5033374;28;19917;-68
2021/07/09 16:27:03;;;;;;;;;;;;;;;;;;5033514;28;19919;-67
2021/07/09 16:29:29;;;;;;;;;;;;;;;;;;5033098;28;19918;-67
2021/07/09 16:31:54;;;;;;;;;;;;;;;;;;5033216;28;19914;-67
2021/07/09 16:34:20;;;;;;;;;;;;;;;;;;5033368;28;19913;-66
2021/07/09 16:36:45;;;;;;;;;;;;;;;;;;5032941;28;19917;-67
2021/07/09 16:39:10;;;;;;;;;;;;;;;;;;5033106;28;19968;-67
2021/07/09 16:41:35;;;;;;;;;;;;;;;;;;5032775;28;19967;-67
2021/07/09 16:44:00;;;;;;;;;;;;;;;;;;5032968;28;19913;-67